Time;durP1;ratioP1;P1;durP2;ratioP2;P2;SDS_P1;SDS_P2;PMS_P1;PMS_P2;Temp;Humidity;BMP_temperature;BMP_pressure;BME280_temperature;BME280_humidity;BME280_pressure;Samples;Min_cycle;Max_cycle;Signal;HPM_P1;HPM_P2
2024/03/05 00:01:56;;;;;;;9.00;3.40;;;;;;;;;;5134992;27;20328;-78
2024/03/05 00:04:23;;;;;;;9.10;3.10;;;;;;;;;;5134899;27;20196;-78
2024/03/05 00:06:52;;;;;;;10.30;3.30;;;;;;;;;;5123869;27;20243;-78
2024/03/05 00:09:21;;;;;;;11.23;3.77;;;;;;;;;;5114103;28;20858;-79
2024/03/05 00:11:48;;;;;;;10.33;4.00;;;;;;;;;;5115074;27;20194;-79
2024/03/05 00:14:15;;;;;;;13.07;4.30;;;;;;;;;;5134856;27;20280;-78
2024/03/05 00:16:42;;;;;;;10.17;4.10;;;;;;;;;;5134683;27;20238;-78
2024/03/05 00:19:09;;;;;;;15.40;4.73;;;;;;;;;;5134965;27;20279;-78
2024/03/05 00:21:37;;;;;;;13.07;4.50;;;;;;;;;;5133856;27;20260;-78
2024/03/05 00:24:06;;;;;;;15.57;5.13;;;;;;;;;;5133576;27;20197;-78
2024/03/05 00:26:33;;;;;;;14.53;4.97;;;;;;;;;;5134716;27;20197;-79
2024/03/05 00:29:02;;;;;;;16.37;4.53;;;;;;;;;;5134437;27;20582;-79
2024/03/05 00:31:29;;;;;;;14.63;4.97;;;;;;;;;;5134476;27;20227;-78
2024/03/05 00:33:56;;;;;;;12.90;4.50;;;;;;;;;;5134521;27;20189;-78
2024/03/05 00:36:25;;;;;;;14.17;4.27;;;;;;;;;;5134154;27;20284;-78
2024/03/05 00:38:52;;;;;;;11.00;4.40;;;;;;;;;;5134859;27;20197;-79
2024/03/05 00:41:22;;;;;;;14.87;4.20;;;;;;;;;;5133622;27;20610;-78
2024/03/05 00:43:49;;;;;;;15.67;4.17;;;;;;;;;;5133845;27;20196;-79
2024/03/05 00:46:16;;;;;;;13.47;4.30;;;;;;;;;;5134057;27;20204;-79
2024/03/05 00:48:43;;;;;;;12.20;4.43;;;;;;;;;;5133664;27;20193;-78
2024/03/05 00:51:11;;;;;;;11.17;3.77;;;;;;;;;;5133319;27;20239;-78
2024/03/05 00:53:38;;;;;;;11.50;3.93;;;;;;;;;;5133992;27;20199;-78
2024/03/05 00:56:06;;;;;;;9.67;3.40;;;;;;;;;;5133941;27;20276;-78
2024/03/05 00:58:35;;;;;;;10.77;3.60;;;;;;;;;;5134291;27;20193;-78
2024/03/05 01:01:04;;;;;;;11.10;3.33;;;;;;;;;;5133837;27;20225;-78
2024/03/05 01:03:31;;;;;;;9.30;2.90;;;;;;;;;;5133412;27;20197;-78
2024/03/05 01:05:58;;;;;;;10.07;2.27;;;;;;;;;;5133233;27;20225;-78
2024/03/05 01:08:25;;;;;;;10.07;2.63;;;;;;;;;;5133449;27;20284;-78
2024/03/05 01:10:53;;;;;;;6.87;2.20;;;;;;;;;;5133637;27;20199;-79
2024/03/05 01:13:20;;;;;;;7.50;2.20;;;;;;;;;;5133529;27;20224;-78
2024/03/05 01:15:48;;;;;;;6.93;2.10;;;;;;;;;;5133751;27;20346;-78
2024/03/05 01:18:15;;;;;;;9.13;2.23;;;;;;;;;;5133361;27;20620;-78
2024/03/05 01:20:43;;;;;;;6.57;1.87;;;;;;;;;;5132808;27;20289;-78
2024/03/05 01:23:10;;;;;;;4.50;1.83;;;;;;;;;;5133270;27;20189;-78
2024/03/05 01:25:38;;;;;;;6.97;1.90;;;;;;;;;;5133026;27;20667;-78
2024/03/05 01:28:07;;;;;;;6.87;2.00;;;;;;;;;;5133276;27;20192;-78
2024/03/05 01:30:34;;;;;;;5.03;1.73;;;;;;;;;;5132864;27;20197;-78
2024/03/05 01:33:05;;;;;;;4.60;1.70;;;;;;;;;;5132949;27;20636;-76
2024/03/05 01:35:32;;;;;;;6.67;1.93;;;;;;;;;;5133065;27;20620;-78
2024/03/05 01:37:59;;;;;;;5.60;2.00;;;;;;;;;;5132876;27;20732;-78
2024/03/05 01:40:27;;;;;;;5.63;1.93;;;;;;;;;;5132777;27;20200;-78
2024/03/05 01:42:54;;;;;;;7.03;2.17;;;;;;;;;;5133194;27;20235;-78
2024/03/05 01:45:21;;;;;;;8.00;1.90;;;;;;;;;;5132766;27;20238;-78
2024/03/05 01:47:49;;;;;;;8.17;2.27;;;;;;;;;;5132127;27;20288;-78
2024/03/05 01:50:17;;;;;;;8.27;1.93;;;;;;;;;;5132539;27;20591;-79
2024/03/05 01:52:45;;;;;;;5.97;1.80;;;;;;;;;;5132861;27;20224;-78
2024/03/05 01:55:15;;;;;;;7.40;2.03;;;;;;;;;;5132656;27;20196;-78
2024/03/05 01:57:43;;;;;;;7.17;2.07;;;;;;;;;;5132819;27;20236;-78
2024/03/05 02:00:15;;;;;;;6.47;1.50;;;;;;;;;;5132694;27;20212;-78
2024/03/05 02:02:43;;;;;;;5.97;1.80;;;;;;;;;;5131904;27;20231;-78
2024/03/05 02:05:12;;;;;;;8.10;1.43;;;;;;;;;;5132931;27;20318;-79
2024/03/05 02:07:41;;;;;;;5.27;1.40;;;;;;;;;;5132274;27;20189;-78
2024/03/05 02:10:08;;;;;;;5.60;1.60;;;;;;;;;;5132348;27;20196;-78
2024/03/05 02:12:35;;;;;;;6.43;1.23;;;;;;;;;;5132359;27;20284;-78
2024/03/05 02:15:03;;;;;;;4.33;1.30;;;;;;;;;;5132709;27;20199;-78
2024/03/05 02:17:31;;;;;;;5.17;1.50;;;;;;;;;;5132437;27;20276;-78
2024/03/05 02:19:58;;;;;;;8.07;1.30;;;;;;;;;;5112314;27;20576;-77
2024/03/05 02:22:27;;;;;;;4.70;1.50;;;;;;;;;;5098949;28;20325;-77
2024/03/05 02:24:54;;;;;;;7.97;1.80;;;;;;;;;;5091566;28;20297;-77
2024/03/05 02:27:21;;;;;;;6.10;1.53;;;;;;;;;;5091185;28;20204;-78
2024/03/05 02:29:48;;;;;;;4.97;1.00;;;;;;;;;;5090940;28;20289;-78
2024/03/05 02:32:16;;;;;;;4.03;1.27;;;;;;;;;;5090914;28;20277;-78
2024/03/05 02:34:43;;;;;;;2.17;0.90;;;;;;;;;;5091087;28;20738;-78
2024/03/05 02:37:12;;;;;;;5.40;1.20;;;;;;;;;;5091197;28;20220;-78
2024/03/05 02:39:41;;;;;;;3.77;1.10;;;;;;;;;;5091399;28;20289;-78
2024/03/05 02:42:08;;;;;;;4.13;1.20;;;;;;;;;;5090983;28;20721;-78
2024/03/05 02:44:35;;;;;;;3.77;1.10;;;;;;;;;;5091375;28;20627;-77
2024/03/05 02:47:02;;;;;;;6.07;1.50;;;;;;;;;;5091141;28;20613;-78
2024/03/05 02:49:30;;;;;;;5.83;1.40;;;;;;;;;;5095184;28;20198;-78
2024/03/05 02:51:57;;;;;;;8.27;2.10;;;;;;;;;;5095127;28;20659;-78
2024/03/05 02:54:24;;;;;;;4.30;1.00;;;;;;;;;;5095159;28;20676;-79
2024/03/05 02:56:52;;;;;;;6.37;1.30;;;;;;;;;;5095236;28;20293;-78
2024/03/05 02:59:20;;;;;;;4.53;1.13;;;;;;;;;;5095102;28;20625;-78
2024/03/05 03:01:47;;;;;;;2.80;0.90;;;;;;;;;;5094374;28;20226;-79
2024/03/05 03:04:15;;;;;;;3.47;1.03;;;;;;;;;;5095090;28;20198;-78
2024/03/05 03:06:43;;;;;;;4.23;1.10;;;;;;;;;;5094524;28;20199;-78
2024/03/05 03:09:10;;;;;;;5.03;1.50;;;;;;;;;;5095016;28;20288;-77
2024/03/05 03:11:40;;;;;;;6.00;1.50;;;;;;;;;;5095314;28;20205;-77
2024/03/05 03:14:11;;;;;;;7.97;2.20;;;;;;;;;;5095021;28;20669;-79
2024/03/05 03:16:43;;;;;;;5.83;1.80;;;;;;;;;;5094256;28;20739;-78
2024/03/05 03:19:10;;;;;;;6.53;1.57;;;;;;;;;;5094384;28;20198;-77
2024/03/05 03:21:37;;;;;;;6.00;1.83;;;;;;;;;;5094798;28;20312;-78
2024/03/05 03:24:05;;;;;;;6.20;1.60;;;;;;;;;;5111500;28;20583;-78
2024/03/05 03:26:33;;;;;;;7.83;2.00;;;;;;;;;;5114883;28;20558;-78
2024/03/05 03:29:00;;;;;;;6.00;1.40;;;;;;;;;;5114542;28;20204;-78
2024/03/05 03:31:29;;;;;;;3.70;1.47;;;;;;;;;;5114900;28;20293;-77
2024/03/05 03:33:56;;;;;;;6.83;1.40;;;;;;;;;;5115388;28;20194;-78
2024/03/05 03:36:24;;;;;;;5.97;1.40;;;;;;;;;;5114944;28;20212;-77
2024/03/05 03:38:51;;;;;;;5.80;1.33;;;;;;;;;;5114862;28;20194;-78
2024/03/05 03:41:19;;;;;;;4.97;1.03;;;;;;;;;;5114762;28;20621;-78
2024/03/05 03:43:47;;;;;;;4.67;1.10;;;;;;;;;;5113791;28;20198;-77
2024/03/05 03:46:14;;;;;;;4.23;1.40;;;;;;;;;;5114856;28;20223;-78
2024/03/05 03:48:42;;;;;;;6.73;1.77;;;;;;;;;;5114843;28;20216;-78
2024/03/05 03:51:10;;;;;;;7.43;1.70;;;;;;;;;;5114396;28;20198;-78
2024/03/05 03:53:37;;;;;;;8.20;2.10;;;;;;;;;;5114329;28;20662;-78
2024/03/05 03:56:05;;;;;;;9.67;2.60;;;;;;;;;;5114248;28;20189;-79
2024/03/05 03:58:32;;;;;;;7.30;2.07;;;;;;;;;;5113867;28;20284;-78
2024/03/05 04:01:00;;;;;;;9.97;1.90;;;;;;;;;;5114125;28;20229;-78
2024/03/05 04:03:29;;;;;;;4.47;1.60;;;;;;;;;;5114479;28;20311;-78
2024/03/05 04:05:59;;;;;;;5.93;1.37;;;;;;;;;;5114251;28;20246;-79
2024/03/05 04:08:26;;;;;;;6.80;1.37;;;;;;;;;;5114201;28;20224;-78
2024/03/05 04:10:54;;;;;;;4.13;1.13;;;;;;;;;;5114317;28;20198;-78
2024/03/05 04:13:21;;;;;;;4.50;1.30;;;;;;;;;;5128179;27;20295;-77
2024/03/05 04:15:48;;;;;;;4.57;1.30;;;;;;;;;;5134525;27;20225;-77
2024/03/05 04:18:15;;;;;;;4.10;1.10;;;;;;;;;;5134744;27;20279;-78
2024/03/05 04:20:43;;;;;;;5.13;1.20;;;;;;;;;;5134654;27;20196;-78
2024/03/05 04:23:11;;;;;;;4.73;1.30;;;;;;;;;;5134522;27;20256;-78
2024/03/05 04:25:40;;;;;;;7.57;1.50;;;;;;;;;;5134027;27;20678;-77
2024/03/05 04:28:10;;;;;;;5.50;1.30;;;;;;;;;;5134389;27;20204;-78
2024/03/05 04:30:38;;;;;;;6.00;1.30;;;;;;;;;;5134467;27;20193;-78
2024/03/05 04:33:09;;;;;;;5.20;1.50;;;;;;;;;;5134425;27;20590;-79
2024/03/05 04:35:36;;;;;;;3.03;1.10;;;;;;;;;;5134276;27;20193;-78
2024/03/05 04:38:06;;;;;;;4.00;1.33;;;;;;;;;;5134138;27;20197;-77
2024/03/05 04:40:35;;;;;;;4.00;1.20;;;;;;;;;;5133832;27;20200;-78
2024/03/05 04:43:02;;;;;;;5.93;1.07;;;;;;;;;;5133939;27;20315;-78
2024/03/05 04:45:29;;;;;;;6.27;1.43;;;;;;;;;;5134300;27;20197;-79
2024/03/05 04:47:57;;;;;;;4.67;1.10;;;;;;;;;;5134078;27;20200;-78
2024/03/05 04:50:24;;;;;;;2.90;1.03;;;;;;;;;;5133924;27;20288;-78
2024/03/05 04:52:52;;;;;;;2.80;1.33;;;;;;;;;;5133689;27;20189;-78
2024/03/05 04:55:21;;;;;;;6.23;1.20;;;;;;;;;;5133617;27;20203;-78
2024/03/05 04:57:50;;;;;;;5.07;1.00;;;;;;;;;;5133621;27;20200;-79
2024/03/05 05:00:21;;;;;;;3.67;1.30;;;;;;;;;;5134166;27;20197;-77
2024/03/05 05:02:49;;;;;;;5.57;1.57;;;;;;;;;;5116295;27;20228;-78
2024/03/05 05:05:16;;;;;;;3.33;1.20;;;;;;;;;;5133815;27;20274;-78
2024/03/05 05:07:44;;;;;;;7.33;1.27;;;;;;;;;;5133709;27;20280;-78
2024/03/05 05:10:12;;;;;;;3.53;1.20;;;;;;;;;;5133435;27;20295;-78
2024/03/05 05:12:39;;;;;;;1.43;1.03;;;;;;;;;;5133384;27;20242;-78
2024/03/05 05:15:09;;;;;;;3.57;1.50;;;;;;;;;;5133439;27;20207;-78
2024/03/05 05:17:36;;;;;;;4.93;2.13;;;;;;;;;;5133586;27;20661;-78
2024/03/05 05:20:04;;;;;;;14.13;7.53;;;;;;;;;;5133406;27;20276;-78
2024/03/05 05:22:31;;;;;;;10.90;6.20;;;;;;;;;;5133482;27;20312;-78
2024/03/05 05:24:58;;;;;;;7.07;2.80;;;;;;;;;;5132719;27;20545;-78
2024/03/05 05:27:26;;;;;;;3.93;1.67;;;;;;;;;;5132937;27;20196;-78
2024/03/05 05:29:53;;;;;;;4.17;1.40;;;;;;;;;;5133007;27;20205;-78
2024/03/05 05:32:22;;;;;;;2.30;0.83;;;;;;;;;;5133192;27;20295;-78
2024/03/05 05:34:49;;;;;;;5.87;1.00;;;;;;;;;;5132976;27;20193;-77
2024/03/05 05:37:16;;;;;;;3.60;0.90;;;;;;;;;;5133017;27;20960;-79
2024/03/05 05:39:43;;;;;;;3.47;1.07;;;;;;;;;;5133297;27;20197;-78
2024/03/05 05:42:13;;;;;;;4.10;1.10;;;;;;;;;;5133103;27;20335;-78
2024/03/05 05:44:41;;;;;;;2.67;1.30;;;;;;;;;;5132746;27;20647;-78
2024/03/05 05:47:10;;;;;;;4.73;1.20;;;;;;;;;;5129830;27;20197;-77
2024/03/05 05:49:39;;;;;;;4.67;0.97;;;;;;;;;;5101832;28;20202;-78
2024/03/05 05:52:07;;;;;;;2.70;1.10;;;;;;;;;;5100187;28;20648;-78
2024/03/05 05:54:41;;;;;;;4.33;0.93;;;;;;;;;;5111775;28;20229;-78
2024/03/05 05:57:08;;;;;;;5.53;1.20;;;;;;;;;;5102741;28;20198;-78
2024/03/05 05:59:35;;;;;;;4.63;1.10;;;;;;;;;;5091583;28;20560;-78
2024/03/05 06:02:03;;;;;;;3.57;1.20;;;;;;;;;;5091560;28;20203;-78
2024/03/05 06:04:31;;;;;;;7.07;1.40;;;;;;;;;;5091972;28;20281;-77
2024/03/05 06:06:59;;;;;;;4.20;1.30;;;;;;;;;;5091657;28;20300;-77
2024/03/05 06:09:28;;;;;;;4.10;1.30;;;;;;;;;;5091098;28;20197;-78
2024/03/05 06:11:55;;;;;;;4.30;1.00;;;;;;;;;;5094971;27;20195;-78
2024/03/05 06:14:22;;;;;;;4.93;1.00;;;;;;;;;;5132594;27;20582;-78
2024/03/05 06:16:50;;;;;;;5.03;1.30;;;;;;;;;;5098847;27;20774;-77
2024/03/05 06:19:17;;;;;;;6.10;1.50;;;;;;;;;;5090759;28;20194;-78
2024/03/05 06:21:44;;;;;;;4.43;1.20;;;;;;;;;;5090916;28;20671;-79
2024/03/05 06:24:13;;;;;;;2.93;1.40;;;;;;;;;;5090762;28;20231;-79
2024/03/05 06:26:41;;;;;;;6.33;2.63;;;;;;;;;;5091665;28;20255;-79
2024/03/05 06:29:09;;;;;;;7.10;2.60;;;;;;;;;;5091173;28;20289;-78
2024/03/05 06:31:36;;;;;;;7.13;2.67;;;;;;;;;;5091333;28;20198;-78
2024/03/05 06:34:05;;;;;;;6.83;2.10;;;;;;;;;;5091406;28;20208;-78
2024/03/05 06:36:33;;;;;;;5.70;1.40;;;;;;;;;;5090998;28;20194;-78
2024/03/05 06:39:00;;;;;;;4.47;1.33;;;;;;;;;;5090995;28;20193;-78
2024/03/05 06:41:30;;;;;;;3.47;1.63;;;;;;;;;;5091094;28;20202;-79
2024/03/05 06:44:10;;;;;;;5.80;1.60;;;;;;;;;;5090987;28;20228;-78
2024/03/05 06:46:41;;;;;;;6.70;2.63;;;;;;;;;;5091142;28;20201;-79
2024/03/05 06:49:14;;;;;;;4.73;2.17;;;;;;;;;;5091533;28;20198;-79
2024/03/05 06:51:52;;;;;;;5.90;2.60;;;;;;;;;;5091236;28;20199;-80
2024/03/05 06:57:08;;;;;;;5.43;1.93;;;;;;;;;;5090797;28;20204;-79
2024/03/05 06:59:35;;;;;;;5.10;1.70;;;;;;;;;;5091454;28;20205;-78
2024/03/05 07:02:03;;;;;;;6.10;1.93;;;;;;;;;;5105222;28;20196;-78
2024/03/05 07:04:30;;;;;;;8.27;2.30;;;;;;;;;;5090678;28;20221;-79
2024/03/05 07:06:57;;;;;;;6.90;2.10;;;;;;;;;;5110472;28;20221;-79
2024/03/05 07:09:30;;;;;;;12.53;2.73;;;;;;;;;;5111216;28;20194;-78
2024/03/05 07:11:57;;;;;;;13.53;3.23;;;;;;;;;;5111020;28;20190;-78
2024/03/05 07:14:27;;;;;;;10.03;3.30;;;;;;;;;;5111463;28;20194;-78
2024/03/05 07:16:55;;;;;;;9.80;3.57;;;;;;;;;;5110957;28;20221;-80
2024/03/05 07:19:22;;;;;;;11.83;3.63;;;;;;;;;;5111168;28;20206;-79
2024/03/05 07:21:50;;;;;;;6.60;3.03;;;;;;;;;;5111010;28;20229;-79
2024/03/05 07:24:17;;;;;;;9.00;2.60;;;;;;;;;;5111918;28;20332;-79
2024/03/05 07:26:44;;;;;;;6.07;2.10;;;;;;;;;;5111331;28;20293;-79
2024/03/05 07:29:12;;;;;;;9.77;2.80;;;;;;;;;;5111146;28;20196;-79
2024/03/05 07:31:42;;;;;;;10.10;2.40;;;;;;;;;;5111679;28;20280;-78
2024/03/05 07:34:10;;;;;;;5.87;2.17;;;;;;;;;;5112738;28;20627;-79
2024/03/05 07:36:39;;;;;;;11.73;2.40;;;;;;;;;;5114744;28;20198;-79
2024/03/05 07:39:12;;;;;;;7.77;2.30;;;;;;;;;;5115021;28;20606;-78
2024/03/05 07:41:40;;;;;;;6.83;1.60;;;;;;;;;;5115300;28;20194;-79
2024/03/05 07:44:07;;;;;;;2.47;1.50;;;;;;;;;;5115016;28;20225;-79
2024/03/05 07:46:35;;;;;;;5.93;1.93;;;;;;;;;;5114959;28;20754;-79
2024/03/05 07:49:03;;;;;;;4.43;1.80;;;;;;;;;;5114608;28;21043;-79
2024/03/05 07:51:31;;;;;;;10.03;2.80;;;;;;;;;;5114566;28;20671;-79
2024/03/05 07:53:58;;;;;;;4.93;1.40;;;;;;;;;;5114856;28;20219;-79
2024/03/05 07:56:25;;;;;;;6.60;1.63;;;;;;;;;;5114928;28;20290;-79
2024/03/05 07:58:52;;;;;;;3.50;1.20;;;;;;;;;;5114843;28;20285;-76
2024/03/05 08:01:19;;;;;;;1.83;1.10;;;;;;;;;;5114704;28;20585;-78
2024/03/05 08:03:47;;;;;;;6.10;1.30;;;;;;;;;;5114276;28;20332;-79
2024/03/05 08:06:15;;;;;;;4.77;1.40;;;;;;;;;;5114089;28;20200;-79
2024/03/05 08:08:42;;;;;;;3.83;1.30;;;;;;;;;;5114563;28;20193;-79
2024/03/05 08:11:11;;;;;;;2.80;1.17;;;;;;;;;;5114122;28;20289;-79
2024/03/05 08:13:39;;;;;;;4.77;1.47;;;;;;;;;;5131170;27;20288;-79
2024/03/05 08:16:08;;;;;;;6.67;1.87;;;;;;;;;;5135393;27;20232;-79
2024/03/05 08:18:35;;;;;;;5.70;1.90;;;;;;;;;;5134875;27;20193;-80
2024/03/05 08:21:02;;;;;;;3.73;1.50;;;;;;;;;;5134440;27;20682;-79
2024/03/05 08:23:31;;;;;;;5.33;2.00;;;;;;;;;;5134556;27;20225;-80
2024/03/05 08:25:58;;;;;;;3.90;1.40;;;;;;;;;;5134618;27;20228;-78
2024/03/05 08:28:25;;;;;;;3.83;1.30;;;;;;;;;;5134678;27;20239;-79
2024/03/05 08:30:53;;;;;;;3.87;2.10;;;;;;;;;;5134806;27;20227;-80
2024/03/05 08:33:21;;;;;;;6.13;1.77;;;;;;;;;;5134539;27;20193;-80
2024/03/05 08:35:48;;;;;;;5.60;1.45;;;;;;;;;;5134754;27;20234;-79
2024/03/05 08:38:15;;;;;;;4.35;1.65;;;;;;;;;;5134412;27;20193;-79
2024/03/05 08:40:44;;;;;;;4.15;1.33;;;;;;;;;;5134468;27;20235;-80
2024/03/05 08:43:11;;;;;;;4.68;1.35;;;;;;;;;;5134685;27;20213;-80
2024/03/05 08:45:38;;;;;;;5.22;2.00;;;;;;;;;;5133537;27;20592;-80
2024/03/05 08:48:05;;;;;;;4.32;1.55;;;;;;;;;;5133578;27;20197;-79
2024/03/05 08:50:33;;;;;;;4.95;1.70;;;;;;;;;;5133972;27;20199;-80
2024/03/05 08:53:02;;;;;;;4.22;1.95;;;;;;;;;;5134112;27;20193;-80
2024/03/05 08:55:30;;;;;;;2.83;1.52;;;;;;;;;;5133220;27;20205;-80
2024/03/05 08:58:00;;;;;;;6.88;1.95;;;;;;;;;;5134338;27;20246;-80
2024/03/05 09:00:29;;;;;;;3.13;1.30;;;;;;;;;;5134135;27;20217;-78
2024/03/05 09:02:56;;;;;;;3.17;1.17;;;;;;;;;;5133826;27;20284;-80
2024/03/05 09:05:24;;;;;;;5.38;1.80;;;;;;;;;;5134345;27;20204;-80
2024/03/05 09:07:51;;;;;;;3.78;1.75;;;;;;;;;;5134176;27;20296;-80
2024/03/05 09:10:18;;;;;;;3.88;1.73;;;;;;;;;;5133766;27;20197;-80
2024/03/05 09:12:45;;;;;;;5.00;1.40;;;;;;;;;;5133962;27;20292;-79
2024/03/05 09:15:15;;;;;;;5.70;1.45;;;;;;;;;;5133674;27;20224;-77
2024/03/05 09:17:43;;;;;;;7.00;1.60;;;;;;;;;;5133524;27;20189;-79
2024/03/05 09:20:15;;;;;;;5.30;1.30;;;;;;;;;;5133425;27;20293;-77
2024/03/05 09:22:44;;;;;;;5.70;1.50;;;;;;;;;;5113809;28;20197;-79
2024/03/05 09:25:11;;;;;;;5.03;1.60;;;;;;;;;;5111468;28;20316;-79
2024/03/05 09:27:38;;;;;;;5.20;1.67;;;;;;;;;;5109471;28;20279;-79
2024/03/05 09:30:08;;;;;;;8.03;1.50;;;;;;;;;;5109258;28;20198;-78
2024/03/05 09:32:40;;;;;;;4.30;1.27;;;;;;;;;;5109303;28;20208;-78
2024/03/05 09:35:09;;;;;;;4.80;1.50;;;;;;;;;;5108355;28;20209;-79
2024/03/05 09:37:37;;;;;;;4.00;1.48;;;;;;;;;;5112399;28;20221;-80
2024/03/05 09:40:06;;;;;;;2.92;1.38;;;;;;;;;;5112341;28;20206;-78
2024/03/05 09:42:33;;;;;;;5.78;1.48;;;;;;;;;;5112336;28;20225;-80
2024/03/05 09:45:05;;;;;;;4.10;0.90;;;;;;;;;;5112030;28;20267;-79
2024/03/05 09:47:35;;;;;;;4.38;1.17;;;;;;;;;;5111817;28;20194;-78
2024/03/05 09:50:05;;;;;;;6.30;1.20;;;;;;;;;;5111742;28;20292;-79
2024/03/05 09:52:33;;;;;;;5.60;1.40;;;;;;;;;;5112155;28;20686;-78
2024/03/05 09:55:01;;;;;;;6.73;1.97;;;;;;;;;;5111881;28;20216;-78
2024/03/05 09:57:29;;;;;;;6.20;1.70;;;;;;;;;;5111813;28;20197;-79
2024/03/05 09:59:56;;;;;;;6.27;1.60;;;;;;;;;;5112107;28;20631;-79
2024/03/05 10:02:24;;;;;;;4.07;1.10;;;;;;;;;;5111486;28;20659;-78
2024/03/05 10:04:52;;;;;;;6.33;1.27;;;;;;;;;;5111592;28;20228;-79
2024/03/05 10:07:26;;;;;;;6.70;1.10;;;;;;;;;;5111664;28;20674;-78
2024/03/05 10:10:03;;;;;;;5.77;1.50;;;;;;;;;;5111517;28;20671;-79
2024/03/05 10:12:30;;;;;;;5.70;1.37;;;;;;;;;;5118496;27;20193;-78
2024/03/05 10:15:11;;;;;;;5.17;1.40;;;;;;;;;;5116923;27;20239;-78
2024/03/05 10:17:43;;;;;;;7.43;1.30;;;;;;;;;;5093438;28;20922;-78
2024/03/05 10:20:10;;;;;;;4.00;1.30;;;;;;;;;;5110811;28;20205;-79
2024/03/05 10:22:39;;;;;;;5.40;1.30;;;;;;;;;;5111913;28;20197;-79
2024/03/05 10:25:14;;;;;;;5.90;1.10;;;;;;;;;;5111348;28;20276;-79
2024/03/05 10:27:46;;;;;;;5.40;1.23;;;;;;;;;;5109700;28;20671;-79
2024/03/05 10:30:24;;;;;;;3.35;1.02;;;;;;;;;;4879369;28;10001022;-80
2024/03/05 10:32:55;;;;;;;6.50;1.50;;;;;;;;;;5107996;28;21001;-79
2024/03/05 10:35:22;;;;;;;5.13;1.20;;;;;;;;;;5108613;28;20205;-80
2024/03/05 10:38:05;;;;;;;7.90;1.40;;;;;;;;;;5108557;28;20305;-80
2024/03/05 10:40:34;;;;;;;6.97;1.23;;;;;;;;;;5107922;28;20278;-78
2024/03/05 10:43:04;;;;;;;4.10;1.03;;;;;;;;;;5108407;28;20660;-80
2024/03/05 10:45:34;;;;;;;4.77;1.03;;;;;;;;;;5107782;28;20767;-79
2024/03/05 10:48:02;;;;;;;6.77;1.17;;;;;;;;;;5107895;28;20297;-79
2024/03/05 10:50:29;;;;;;;6.13;1.20;;;;;;;;;;5108317;28;20201;-80
2024/03/05 10:52:57;;;;;;;6.70;1.10;;;;;;;;;;5107791;28;20194;-80
2024/03/05 10:55:26;;;;;;;1.80;0.83;;;;;;;;;;5106650;28;20197;-80
2024/03/05 10:58:26;;;;;;;4.67;0.90;;;;;;;;;;5107436;28;20209;-80
2024/03/05 11:00:53;;;;;;;4.17;0.70;;;;;;;;;;5108231;28;20194;-80
2024/03/05 11:03:26;;;;;;;3.20;0.73;;;;;;;;;;5108322;28;20271;-78
2024/03/05 11:05:56;;;;;;;3.90;0.93;;;;;;;;;;5107679;28;20233;-80
2024/03/05 11:08:24;;;;;;;4.60;0.80;;;;;;;;;;5108337;28;20699;-80
2024/03/05 11:10:55;;;;;;;2.57;0.90;;;;;;;;;;5112606;28;20205;-80
2024/03/05 11:13:24;;;;;;;4.50;0.80;;;;;;;;;;5125636;27;20734;-78
2024/03/05 11:15:52;;;;;;;3.53;1.00;;;;;;;;;;5132315;27;20229;-79
2024/03/05 11:18:25;;;;;;;4.40;0.97;;;;;;;;;;5133066;27;20193;-79
2024/03/05 11:20:53;;;;;;;5.37;1.03;;;;;;;;;;5133147;27;20280;-81
2024/03/05 11:23:21;;;;;;;3.37;0.80;;;;;;;;;;5132556;27;20729;-79
2024/03/05 11:25:48;;;;;;;5.03;0.90;;;;;;;;;;5132546;27;20311;-78
2024/03/05 11:28:19;;;;;;;4.50;1.20;;;;;;;;;;5131889;27;20633;-80
2024/03/05 11:30:46;;;;;;;3.60;0.93;;;;;;;;;;5126503;27;20209;-80
2024/03/05 11:33:15;;;;;;;4.72;0.95;;;;;;;;;;5111980;28;20297;-79
2024/03/05 11:35:43;;;;;;;3.35;0.95;;;;;;;;;;5112149;28;20201;-80
2024/03/05 11:38:12;;;;;;;2.60;1.05;;;;;;;;;;5115937;28;20229;-79
2024/03/05 11:40:39;;;;;;;4.90;1.10;;;;;;;;;;5111352;28;20802;-80
2024/03/05 11:43:07;;;;;;;5.10;1.10;;;;;;;;;;5111456;28;20206;-78
2024/03/05 11:45:46;;;;;;;4.72;1.15;;;;;;;;;;5111628;28;20233;-79
2024/03/05 11:48:14;;;;;;;6.10;1.10;;;;;;;;;;5111784;28;20198;-81
2024/03/05 11:50:42;;;;;;;5.05;1.45;;;;;;;;;;5111421;28;20194;-81
2024/03/05 11:53:10;;;;;;;6.53;1.23;;;;;;;;;;5111250;28;20288;-80
2024/03/05 11:55:37;;;;;;;4.35;1.15;;;;;;;;;;5111318;28;20248;-80
2024/03/05 11:58:07;;;;;;;5.22;1.33;;;;;;;;;;5110962;28;20289;-81
2024/03/05 12:00:35;;;;;;;4.72;1.40;;;;;;;;;;5111124;28;20209;-80
2024/03/05 12:03:06;;;;;;;3.60;1.23;;;;;;;;;;5111549;28;20193;-81
2024/03/05 12:05:33;;;;;;;3.35;1.27;;;;;;;;;;5110674;28;20773;-81
2024/03/05 12:08:01;;;;;;;7.90;1.52;;;;;;;;;;5111570;28;20679;-80
2024/03/05 12:10:31;;;;;;;4.60;1.20;;;;;;;;;;5110737;28;20210;-80
2024/03/05 12:12:59;;;;;;;3.78;1.23;;;;;;;;;;5121448;27;20228;-79
2024/03/05 12:15:27;;;;;;;4.80;1.02;;;;;;;;;;5131936;27;20224;-79
2024/03/05 12:17:57;;;;;;;5.85;1.40;;;;;;;;;;5133082;27;20200;-80
2024/03/05 12:20:25;;;;;;;6.78;1.10;;;;;;;;;;5130129;27;20197;-80
2024/03/05 12:22:53;;;;;;;6.53;1.55;;;;;;;;;;5132972;27;20679;-79
2024/03/05 12:25:21;;;;;;;6.80;1.45;;;;;;;;;;5132657;27;20228;-81
2024/03/05 12:27:48;;;;;;;6.32;1.50;;;;;;;;;;5132832;27;20295;-81
2024/03/05 12:30:15;;;;;;;6.63;2.20;;;;;;;;;;5134885;27;20201;-81
2024/03/05 12:32:44;;;;;;;4.05;1.17;;;;;;;;;;5132749;27;20288;-80
2024/03/05 12:35:13;;;;;;;3.58;1.15;;;;;;;;;;5102797;28;20323;-81
2024/03/05 12:37:42;;;;;;;6.75;1.52;;;;;;;;;;5102867;28;20197;-81
2024/03/05 12:40:15;;;;;;;4.95;1.25;;;;;;;;;;5102789;28;20210;-81
2024/03/05 12:42:44;;;;;;;3.72;1.20;;;;;;;;;;5102745;28;20210;-81
2024/03/05 12:45:14;;;;;;;5.43;1.33;;;;;;;;;;5101237;28;20219;-81
2024/03/05 12:47:42;;;;;;;4.82;0.90;;;;;;;;;;5102032;28;20205;-80
2024/03/05 12:50:10;;;;;;;3.17;1.17;;;;;;;;;;5102926;28;20193;-81
2024/03/05 12:52:37;;;;;;;3.33;0.80;;;;;;;;;;5101522;28;20198;-81
2024/03/05 12:55:07;;;;;;;2.83;0.60;;;;;;;;;;5100882;28;20251;-81
2024/03/05 12:57:35;;;;;;;3.27;0.70;;;;;;;;;;5102825;28;20706;-79
2024/03/05 13:00:05;;;;;;;2.73;0.70;;;;;;;;;;5102535;28;20233;-81
2024/03/05 13:02:33;;;;;;;4.10;1.17;;;;;;;;;;5100510;28;20190;-81
2024/03/05 13:05:00;;;;;;;2.93;1.17;;;;;;;;;;5102393;28;20308;-82
2024/03/05 13:07:27;;;;;;;2.47;1.27;;;;;;;;;;5102651;28;20294;-81
2024/03/05 13:09:55;;;;;;;3.93;1.40;;;;;;;;;;5100298;28;20282;-82
2024/03/05 13:12:24;;;;;;;3.90;1.57;;;;;;;;;;5104925;27;20198;-81
2024/03/05 13:14:51;;;;;;;4.40;1.57;;;;;;;;;;5100376;28;20226;-81
2024/03/05 13:17:19;;;;;;;3.37;1.40;;;;;;;;;;5101593;28;20317;-81
2024/03/05 13:19:46;;;;;;;4.07;1.40;;;;;;;;;;5102502;28;20194;-80
2024/03/05 13:22:14;;;;;;;3.13;1.20;;;;;;;;;;5102539;28;20190;-81
2024/03/05 13:24:41;;;;;;;2.50;0.90;;;;;;;;;;5100903;28;20301;-81
2024/03/05 13:27:08;;;;;;;2.60;0.90;;;;;;;;;;5100269;28;20224;-80
2024/03/05 13:29:37;;;;;;;4.67;1.10;;;;;;;;;;5102171;28;20224;-81
2024/03/05 13:32:04;;;;;;;3.87;0.90;;;;;;;;;;5101755;28;20198;-81
2024/03/05 13:34:31;;;;;;;2.77;1.20;;;;;;;;;;5099951;28;20759;-80
2024/03/05 13:36:58;;;;;;;3.97;1.20;;;;;;;;;;5101615;28;20277;-81
2024/03/05 13:39:26;;;;;;;4.70;0.70;;;;;;;;;;5101607;28;20226;-81
2024/03/05 13:41:53;;;;;;;2.90;0.70;;;;;;;;;;5099716;28;20277;-80
2024/03/05 13:44:21;;;;;;;4.53;0.77;;;;;;;;;;5101543;28;20194;-81
2024/03/05 13:46:51;;;;;;;4.80;1.20;;;;;;;;;;5102356;28;20209;-80
2024/03/05 13:49:19;;;;;;;4.50;0.80;;;;;;;;;;5100385;28;20206;-80
2024/03/05 13:51:46;;;;;;;5.10;1.00;;;;;;;;;;5100159;28;20251;-78
2024/03/05 13:54:13;;;;;;;4.07;1.10;;;;;;;;;;5102487;28;20218;-81
2024/03/05 13:56:42;;;;;;;5.67;1.10;;;;;;;;;;5099785;28;20212;-80
2024/03/05 13:59:10;;;;;;;3.40;1.13;;;;;;;;;;5099393;28;20222;-81
2024/03/05 14:01:38;;;;;;;6.03;1.40;;;;;;;;;;5101421;28;20204;-80
2024/03/05 14:04:09;;;;;;;5.10;1.30;;;;;;;;;;5101302;28;20195;-79
2024/03/05 14:06:37;;;;;;;5.57;1.43;;;;;;;;;;5101740;28;20229;-80
2024/03/05 14:09:08;;;;;;;4.97;1.10;;;;;;;;;;5100623;28;20201;-81
2024/03/05 14:11:36;;;;;;;3.77;1.00;;;;;;;;;;5101746;28;20202;-81
2024/03/05 14:14:03;;;;;;;5.70;1.00;;;;;;;;;;5103296;27;20600;-81
2024/03/05 14:16:30;;;;;;;4.40;0.97;;;;;;;;;;5101514;28;20316;-81
2024/03/05 14:18:58;;;;;;;5.80;1.10;;;;;;;;;;5100068;28;20186;-81
2024/03/05 14:21:30;;;;;;;6.63;1.40;;;;;;;;;;5099913;28;20217;-82
2024/03/05 14:23:58;;;;;;;4.30;1.30;;;;;;;;;;5099762;28;20190;-81
2024/03/05 14:26:25;;;;;;;3.40;0.93;;;;;;;;;;5099479;28;20253;-81
2024/03/05 14:28:52;;;;;;;6.33;1.10;;;;;;;;;;5101625;28;20277;-80
2024/03/05 14:31:20;;;;;;;4.00;1.13;;;;;;;;;;5100144;28;20229;-81
2024/03/05 14:33:47;;;;;;;3.13;0.90;;;;;;;;;;5099642;28;20284;-82
2024/03/05 14:36:14;;;;;;;3.10;0.90;;;;;;;;;;5101291;28;20243;-80
2024/03/05 14:38:43;;;;;;;6.05;1.08;;;;;;;;;;5099928;28;20747;-82
2024/03/05 14:41:10;;;;;;;10.80;5.65;;;;;;;;;;5098861;28;20197;-81
2024/03/05 14:43:38;;;;;;;4.18;1.63;;;;;;;;;;5110562;28;20644;-82
2024/03/05 14:46:06;;;;;;;5.70;1.35;;;;;;;;;;5111247;28;20278;-80
2024/03/05 14:48:33;;;;;;;6.47;2.40;;;;;;;;;;5111525;28;20621;-80
2024/03/05 14:51:01;;;;;;;5.38;1.50;;;;;;;;;;5111542;28;20223;-79